createdAt,value
2019-03-13T00:01:42.354Z,50.10
2019-03-13T00:04:11.267Z,50.04
2019-03-13T00:06:39.210Z,49.65
2019-03-13T00:09:07.715Z,49.53
2019-03-13T00:11:35.891Z,50.36
2019-03-13T00:14:04.041Z,50.41
2019-03-13T00:16:32.003Z,50.80
2019-03-13T00:18:59.971Z,51.05
2019-03-13T00:21:27.946Z,50.68
2019-03-13T00:23:55.930Z,50.97
2019-03-13T00:26:23.907Z,51.90
2019-03-13T00:28:51.459Z,52.10
2019-03-13T00:31:19.221Z,52.49
2019-03-13T00:33:47.191Z,52.38
2019-03-13T00:36:15.160Z,53.19
2019-03-13T00:38:43.026Z,52.33
2019-03-13T00:41:10.787Z,52.30
2019-03-13T00:43:38.550Z,52.38
2019-03-13T00:46:06.517Z,52.50
2019-03-13T00:48:34.182Z,52.57
2019-03-13T00:51:02.050Z,52.89
2019-03-13T00:53:30.737Z,53.08
2019-03-13T00:55:58.602Z,53.35
2019-03-13T00:58:26.668Z,53.50
2019-03-13T01:00:57.797Z,53.12
2019-03-13T01:03:33.565Z,53.36
2019-03-13T01:06:09.522Z,53.95
2019-03-13T01:08:37.488Z,53.88
2019-03-13T01:11:05.462Z,54.03
2019-03-13T01:13:33.455Z,54.56
2019-03-13T01:16:01.509Z,55.44
2019-03-13T01:18:29.258Z,54.15
2019-03-13T01:20:57.106Z,53.47
2019-03-13T01:23:25.303Z,52.60
2019-03-13T01:25:53.065Z,53.24
2019-03-13T01:28:20.832Z,53.17
2019-03-13T01:30:50.431Z,53.92
2019-03-13T01:33:20.451Z,54.63
2019-03-13T01:35:59.072Z,55.94
2019-03-13T01:38:26.835Z,55.88
2019-03-13T01:40:54.619Z,55.68
2019-03-13T01:43:22.361Z,56.87
2019-03-13T01:45:50.224Z,61.15
2019-03-13T01:48:17.995Z,61.32
2019-03-13T01:50:45.755Z,59.71
2019-03-13T01:53:14.133Z,59.36
2019-03-13T01:55:41.892Z,60.47
2019-03-13T01:58:09.968Z,63.81
2019-03-13T02:00:38.243Z,63.56
2019-03-13T02:03:06.731Z,64.84
2019-03-13T02:05:34.593Z,63.82
2019-03-13T02:08:02.342Z,64.77
2019-03-13T02:10:30.140Z,63.10
2019-03-13T02:12:57.984Z,63.12
2019-03-13T02:15:26.055Z,64.02
2019-03-13T02:17:53.922Z,64.76
2019-03-13T02:20:21.683Z,65.62
2019-03-13T02:22:49.450Z,66.61
2019-03-13T02:25:17.312Z,66.30
2019-03-13T02:27:45.074Z,66.63
2019-03-13T02:30:15.508Z,67.53
2019-03-13T02:32:43.168Z,67.80
2019-03-13T02:35:11.036Z,67.90
2019-03-13T02:37:38.895Z,68.63
2019-03-13T02:40:10.039Z,69.37
2019-03-13T02:42:37.806Z,69.17
2019-03-13T02:45:10.066Z,69.55
2019-03-13T02:47:37.425Z,70.32
2019-03-13T02:50:11.334Z,70.87
2019-03-13T02:52:40.133Z,71.29
2019-03-13T02:55:09.333Z,71.41
2019-03-13T02:57:36.671Z,71.88
2019-03-13T03:00:16.720Z,73.04
2019-03-13T03:02:46.536Z,72.69
2019-03-13T03:05:14.502Z,73.00
2019-03-13T03:07:42.265Z,73.64
2019-03-13T03:10:11.371Z,74.24
2019-03-13T03:12:39.020Z,75.36
2019-03-13T03:15:10.578Z,75.44
2019-03-13T03:17:37.932Z,75.82
2019-03-13T03:20:08.669Z,76.02
2019-03-13T03:22:36.020Z,76.63
2019-03-13T03:25:07.158Z,76.01
2019-03-13T03:27:34.724Z,76.60
2019-03-13T03:30:05.088Z,77.49
2019-03-13T03:32:33.517Z,77.14
2019-03-13T03:35:01.609Z,78.88
2019-03-13T03:37:30.577Z,77.95
2019-03-13T03:40:01.105Z,78.49
2019-03-13T03:42:28.997Z,77.89
2019-03-13T03:44:56.736Z,77.85
2019-03-13T03:47:24.499Z,77.65
2019-03-13T03:49:53.087Z,78.20
2019-03-13T03:52:20.948Z,78.36
2019-03-13T03:54:49.533Z,78.97
2019-03-13T03:57:17.197Z,79.33
2019-03-13T03:59:45.062Z,79.61
2019-03-13T04:02:13.334Z,78.98
2019-03-13T04:04:41.304Z,78.92
2019-03-13T04:07:09.377Z,79.26
2019-03-13T04:09:37.438Z,80.39
2019-03-13T04:12:07.253Z,80.40
2019-03-13T04:14:35.325Z,80.66
2019-03-13T04:17:03.296Z,81.74
2019-03-13T04:19:31.270Z,81.87
2019-03-13T04:21:59.243Z,80.94
2019-03-13T04:24:27.305Z,80.37
2019-03-13T04:26:55.170Z,80.00
2019-03-13T04:29:23.135Z,79.17
2019-03-13T04:31:53.255Z,78.53
2019-03-13T04:34:21.427Z,79.50
2019-03-13T04:36:49.606Z,79.37
2019-03-13T04:39:17.677Z,79.96
2019-03-13T04:41:45.642Z,79.41
2019-03-13T04:44:13.510Z,78.84
2019-03-13T04:46:41.474Z,78.18
2019-03-13T04:49:09.445Z,78.04
2019-03-13T04:51:37.514Z,77.54
2019-03-13T04:54:05.896Z,78.21
2019-03-13T04:56:33.557Z,77.48
2019-03-13T04:59:01.422Z,78.00
2019-03-13T05:01:29.800Z,77.80
2019-03-13T05:03:57.878Z,78.52
2019-03-13T05:06:26.862Z,78.29
2019-03-13T05:08:57.152Z,78.31
2019-03-13T05:11:24.643Z,78.32
2019-03-13T05:13:52.584Z,78.76
2019-03-13T05:16:20.683Z,78.24
2019-03-13T05:18:48.652Z,79.13
2019-03-13T05:21:16.632Z,79.41
2019-03-13T05:23:44.689Z,79.77
2019-03-13T05:26:12.656Z,79.79
2019-03-13T05:28:40.625Z,79.48
2019-03-13T05:31:09.103Z,78.53
2019-03-13T05:33:37.079Z,78.01
2019-03-13T05:36:05.251Z,77.89
2019-03-13T05:38:33.322Z,78.35
2019-03-13T05:41:01.307Z,77.38
2019-03-13T05:43:29.263Z,76.76
2019-03-13T05:45:57.426Z,76.00
2019-03-13T05:48:25.399Z,76.27
2019-03-13T05:50:53.470Z,75.09
2019-03-13T05:53:21.647Z,75.63
2019-03-13T05:55:49.411Z,74.73
2019-03-13T05:58:17.374Z,74.41
2019-03-13T06:00:46.776Z,74.92
2019-03-13T06:03:14.679Z,74.18
2019-03-13T06:05:42.956Z,73.44
2019-03-13T06:08:10.889Z,73.74
2019-03-13T06:10:38.660Z,73.93
2019-03-13T06:13:06.728Z,74.52
2019-03-13T06:15:34.508Z,74.02
2019-03-13T06:18:02.456Z,73.63
2019-03-13T06:20:30.423Z,73.24
2019-03-13T06:22:58.393Z,73.43
2019-03-13T06:25:26.367Z,75.90
2019-03-13T06:27:54.329Z,77.94
2019-03-13T06:30:22.225Z,78.57
2019-03-13T06:32:50.375Z,78.65
2019-03-13T06:35:18.341Z,79.24
2019-03-13T06:37:46.411Z,77.95
2019-03-13T06:40:19.696Z,77.89
2019-03-13T06:42:47.261Z,78.06
2019-03-13T06:45:15.436Z,78.24
2019-03-13T06:47:43.062Z,78.31
2019-03-13T06:50:18.665Z,76.17
2019-03-13T06:52:46.508Z,75.39
2019-03-13T06:55:14.373Z,72.36
2019-03-13T06:57:42.341Z,72.83
2019-03-13T07:00:30.379Z,74.86
2019-03-13T07:03:06.746Z,75.09
2019-03-13T07:05:36.864Z,72.82
2019-03-13T07:08:06.682Z,71.65
2019-03-13T07:10:42.713Z,73.47
2019-03-13T07:13:31.288Z,73.94
2019-03-13T07:16:00.994Z,75.86
2019-03-13T07:18:30.811Z,74.84
2019-03-13T07:21:00.520Z,73.73
2019-03-13T07:23:30.325Z,73.70
2019-03-13T07:26:09.057Z,72.92
2019-03-13T07:28:52.490Z,72.64
2019-03-13T07:31:25.358Z,71.60
2019-03-13T07:33:55.379Z,70.70
2019-03-13T07:36:25.194Z,70.17
2019-03-13T07:38:54.895Z,67.72
2019-03-13T07:41:30.630Z,64.77
2019-03-13T07:44:17.359Z,63.13
2019-03-13T07:46:47.178Z,63.87
2019-03-13T07:49:33.880Z,63.03
2019-03-13T07:52:20.180Z,62.34
2019-03-13T07:54:59.715Z,63.90
2019-03-13T07:57:33.008Z,63.97
2019-03-13T08:00:02.804Z,61.83
2019-03-13T08:02:36.222Z,61.79
2019-03-13T08:05:15.963Z,62.45
2019-03-13T08:07:59.088Z,64.36
2019-03-13T08:10:37.805Z,61.79
2019-03-13T08:13:14.089Z,62.64
2019-03-13T08:15:59.264Z,59.41
2019-03-13T08:18:35.103Z,56.22
2019-03-13T08:21:07.670Z,58.56
2019-03-13T08:23:37.488Z,56.69
2019-03-13T08:26:10.268Z,54.15
2019-03-13T08:28:41.001Z,55.12
2019-03-13T08:31:19.519Z,54.50
2019-03-13T08:33:49.632Z,50.42
2019-03-13T08:36:19.644Z,51.46
2019-03-13T08:38:58.780Z,52.70
2019-03-13T08:41:34.429Z,55.94
2019-03-13T08:44:04.342Z,56.24
2019-03-13T08:46:34.255Z,54.79
2019-03-13T08:49:13.401Z,54.88
2019-03-13T08:51:43.299Z,48.69
2019-03-13T08:54:22.737Z,48.80
2019-03-13T08:56:58.695Z,45.61
2019-03-13T08:59:31.573Z,44.96
2019-03-13T09:02:04.461Z,44.80
2019-03-13T09:04:42.117Z,45.45
2019-03-13T09:07:11.662Z,46.27
2019-03-13T09:09:41.675Z,44.75
2019-03-13T09:12:23.470Z,44.64
2019-03-13T09:15:05.365Z,43.99
2019-03-13T09:17:37.579Z,46.06
2019-03-13T09:20:09.538Z,46.37
2019-03-13T09:22:44.939Z,47.28
2019-03-13T09:25:31.642Z,44.94
2019-03-13T09:28:10.470Z,44.05
2019-03-13T09:30:40.078Z,45.43
2019-03-13T09:33:18.489Z,46.02
2019-03-13T09:36:03.962Z,46.19
2019-03-13T09:38:33.595Z,43.57
2019-03-13T09:41:09.330Z,44.58
2019-03-13T09:43:41.797Z,43.92
2019-03-13T09:46:14.579Z,43.12
2019-03-13T09:48:46.847Z,42.42
2019-03-13T09:51:16.353Z,44.26
2019-03-13T09:53:52.106Z,44.76
2019-03-13T09:56:24.884Z,43.59
2019-03-13T09:58:54.695Z,43.44
2019-03-13T10:01:24.979Z,43.21
2019-03-13T10:03:57.391Z,43.56
2019-03-13T10:06:35.911Z,43.48
2019-03-13T10:09:17.191Z,45.06
2019-03-13T10:12:03.392Z,44.94
2019-03-13T10:14:35.758Z,44.62
2019-03-13T10:17:11.013Z,44.20
2019-03-13T10:19:43.288Z,42.05
2019-03-13T10:22:15.338Z,40.61
2019-03-13T10:24:45.142Z,40.97
2019-03-13T10:27:23.963Z,41.88
2019-03-13T10:30:11.901Z,41.52
2019-03-13T10:32:44.683Z,39.59
2019-03-13T10:35:17.682Z,40.12
2019-03-13T10:37:48.198Z,40.69
2019-03-13T10:40:27.236Z,39.74
2019-03-13T10:42:57.050Z,39.97
2019-03-13T10:45:32.991Z,39.42
2019-03-13T10:48:14.479Z,38.43
2019-03-13T10:50:44.393Z,38.92
2019-03-13T10:53:14.517Z,38.96
2019-03-13T10:55:56.923Z,39.01
2019-03-13T10:58:33.387Z,41.13
2019-03-13T11:01:13.850Z,40.53
2019-03-13T11:03:43.866Z,38.66
2019-03-13T11:06:16.750Z,38.57
2019-03-13T11:08:51.984Z,38.52
2019-03-13T11:11:24.362Z,38.56
2019-03-13T11:13:53.964Z,37.11
2019-03-13T11:16:23.557Z,37.49
2019-03-13T11:18:53.283Z,36.41
2019-03-13T11:21:26.170Z,37.72
2019-03-13T11:24:02.126Z,37.82
2019-03-13T11:26:41.151Z,37.47
2019-03-13T11:29:10.867Z,37.56
2019-03-13T11:31:43.344Z,39.29
2019-03-13T11:34:20.840Z,37.63
2019-03-13T11:36:56.369Z,37.15
2019-03-13T11:39:32.026Z,37.18
2019-03-13T11:42:04.909Z,36.89
2019-03-13T11:44:40.353Z,36.52
2019-03-13T11:47:41.409Z,34.89
2019-03-13T11:50:00.530Z,34.89
2019-03-13T11:52:35.072Z,34.50
2019-03-13T11:55:20.760Z,34.56
2019-03-13T11:57:56.813Z,37.58
2019-03-13T12:00:35.905Z,37.28
2019-03-13T12:03:09.138Z,37.24
2019-03-13T12:05:38.843Z,35.98
2019-03-13T12:08:08.758Z,37.42
2019-03-13T12:10:50.653Z,37.00
2019-03-13T12:13:29.370Z,36.45
2019-03-13T12:16:01.954Z,36.73
2019-03-13T12:18:34.863Z,37.07
2019-03-13T12:21:13.658Z,37.07
2019-03-13T12:23:46.193Z,37.04
2019-03-13T12:26:31.214Z,38.41
2019-03-13T12:29:00.808Z,38.30
2019-03-13T12:31:30.417Z,36.83
2019-03-13T12:34:00.224Z,35.91
2019-03-13T12:36:48.061Z,36.64
2019-03-13T12:39:23.502Z,37.25
2019-03-13T12:41:56.317Z,37.02
2019-03-13T12:44:42.685Z,36.46
2019-03-13T12:47:18.135Z,36.59
2019-03-13T12:49:50.604Z,36.34
2019-03-13T12:52:29.427Z,36.45
2019-03-13T12:55:08.276Z,35.96
2019-03-13T12:57:50.044Z,35.67
2019-03-13T13:00:20.062Z,36.07
2019-03-13T13:03:07.072Z,34.66
2019-03-13T13:05:36.889Z,35.54
2019-03-13T13:08:18.674Z,35.62
2019-03-13T13:11:06.616Z,36.28
2019-03-13T13:13:53.330Z,36.52
2019-03-13T13:16:31.898Z,36.17
2019-03-13T13:18:59.703Z,37.36
2019-03-13T13:21:27.667Z,36.73
2019-03-13T13:23:55.540Z,38.25
2019-03-13T13:26:23.306Z,38.63
2019-03-13T13:28:53.935Z,39.03
2019-03-13T13:31:21.798Z,38.87
2019-03-13T13:33:49.462Z,38.84
2019-03-13T13:36:17.428Z,38.54
2019-03-13T13:38:45.399Z,38.60
2019-03-13T13:41:13.160Z,39.17
2019-03-13T13:43:41.038Z,39.40
2019-03-13T13:46:15.345Z,38.57
2019-03-13T13:48:45.978Z,38.74
2019-03-13T13:51:13.704Z,38.22
2019-03-13T13:53:42.116Z,38.57
2019-03-13T13:56:09.982Z,38.86
2019-03-13T13:58:37.749Z,38.89
2019-03-13T14:01:05.923Z,39.13
2019-03-13T14:03:34.198Z,39.06
2019-03-13T14:06:02.478Z,38.60
2019-03-13T14:08:30.550Z,39.12
2019-03-13T14:10:58.534Z,38.68
2019-03-13T14:13:26.390Z,38.48
2019-03-13T14:15:54.343Z,38.16
2019-03-13T14:18:22.110Z,38.53
2019-03-13T14:20:50.093Z,38.83
2019-03-13T14:23:18.072Z,38.39
2019-03-13T14:25:46.368Z,37.96
2019-03-13T14:28:14.406Z,37.34
2019-03-13T14:30:42.359Z,37.14
2019-03-13T14:33:10.433Z,37.12
2019-03-13T14:35:38.399Z,37.52
2019-03-13T14:38:06.386Z,36.91
2019-03-13T14:40:34.132Z,36.58
2019-03-13T14:43:02.100Z,36.78
2019-03-13T14:45:29.866Z,37.12
2019-03-13T14:47:57.631Z,36.94
2019-03-13T14:50:25.699Z,37.27
2019-03-13T14:52:53.978Z,37.43
2019-03-13T14:55:21.943Z,37.36
2019-03-13T14:57:49.810Z,37.59
2019-03-13T15:00:19.243Z,37.94
2019-03-13T15:02:49.134Z,38.35
2019-03-13T15:05:17.198Z,38.90
2019-03-13T15:07:45.282Z,39.09
2019-03-13T15:10:15.928Z,39.67
2019-03-13T15:12:43.662Z,39.54
2019-03-13T15:15:14.676Z,39.59
2019-03-13T15:17:42.180Z,40.34
2019-03-13T15:20:15.672Z,39.48
2019-03-13T15:22:44.136Z,39.99
2019-03-13T15:25:13.029Z,41.12
2019-03-13T15:27:41.221Z,40.85
2019-03-13T15:30:21.152Z,40.88
2019-03-13T15:32:49.463Z,40.61
2019-03-13T15:35:17.617Z,41.13
2019-03-13T15:37:45.881Z,41.18
2019-03-13T15:40:15.182Z,40.87
2019-03-13T15:42:43.353Z,41.29
2019-03-13T15:45:23.712Z,41.65
2019-03-13T15:47:51.855Z,42.23
2019-03-13T15:50:21.608Z,42.67
2019-03-13T15:52:50.483Z,43.55
2019-03-13T15:55:18.959Z,44.50
2019-03-13T15:57:46.977Z,44.09
2019-03-13T16:00:21.044Z,44.35
2019-03-13T16:02:49.861Z,44.38
2019-03-13T16:05:17.798Z,44.41
2019-03-13T16:07:45.767Z,45.54
2019-03-13T16:10:14.860Z,45.08
2019-03-13T16:12:42.643Z,45.31
2019-03-13T16:15:16.853Z,45.69
2019-03-13T16:17:44.401Z,45.96
2019-03-13T16:20:14.170Z,45.02
2019-03-13T16:22:44.132Z,45.45
2019-03-13T16:25:12.301Z,46.09
2019-03-13T16:27:40.166Z,45.97
2019-03-13T16:30:18.275Z,45.81
2019-03-13T16:32:46.240Z,46.03
2019-03-13T16:35:14.525Z,45.84
2019-03-13T16:37:42.818Z,45.83
2019-03-13T16:40:13.115Z,46.37
2019-03-13T16:42:40.738Z,46.32
2019-03-13T16:45:11.444Z,46.39
2019-03-13T16:47:39.270Z,46.48
2019-03-13T16:50:10.531Z,45.55
2019-03-13T16:52:38.177Z,45.05
2019-03-13T16:55:09.833Z,45.32
2019-03-13T16:57:37.746Z,46.15
2019-03-13T17:00:15.199Z,46.67
2019-03-13T17:02:43.699Z,46.49
2019-03-13T17:05:13.828Z,46.81
2019-03-13T17:07:41.582Z,47.06
2019-03-13T17:10:11.680Z,47.45
2019-03-13T17:12:39.332Z,47.74
2019-03-13T17:15:13.566Z,48.38
2019-03-13T17:17:41.215Z,48.43
2019-03-13T17:20:26.255Z,48.65
2019-03-13T17:22:54.561Z,48.92
2019-03-13T17:25:22.838Z,48.94
2019-03-13T17:27:50.912Z,48.78
2019-03-13T17:30:28.859Z,49.04
2019-03-13T17:32:56.567Z,48.69
2019-03-13T17:35:24.741Z,49.07
2019-03-13T17:37:52.505Z,48.29
2019-03-13T17:40:22.524Z,48.93
2019-03-13T17:42:50.208Z,47.43
2019-03-13T17:45:19.995Z,47.96
2019-03-13T17:47:47.783Z,47.22
2019-03-13T17:50:17.468Z,47.17
2019-03-13T17:52:45.643Z,47.28
2019-03-13T17:55:15.556Z,47.69
2019-03-13T17:57:43.227Z,46.84
2019-03-13T18:00:16.512Z,46.74
2019-03-13T18:02:45.300Z,47.25
2019-03-13T18:05:14.351Z,47.70
2019-03-13T18:07:42.259Z,47.74
2019-03-13T18:10:18.743Z,47.08
2019-03-13T18:12:46.794Z,47.46
2019-03-13T18:15:16.091Z,47.61
2019-03-13T18:17:44.169Z,47.53
2019-03-13T18:20:22.685Z,48.53
2019-03-13T18:22:50.652Z,48.56
2019-03-13T18:25:18.882Z,49.14
2019-03-13T18:27:47.508Z,49.03
2019-03-13T18:30:17.480Z,49.99
2019-03-13T18:32:44.989Z,50.34
2019-03-13T18:35:14.077Z,50.39
2019-03-13T18:37:41.945Z,51.04
2019-03-13T18:40:14.943Z,50.71
2019-03-13T18:42:42.804Z,50.71
2019-03-13T18:45:16.198Z,50.98
2019-03-13T18:47:43.752Z,51.14
2019-03-13T18:50:16.225Z,50.43
2019-03-13T18:52:44.200Z,50.98
2019-03-13T18:55:21.064Z,50.81
2019-03-13T18:57:50.729Z,50.47
2019-03-13T19:00:22.131Z,50.80
2019-03-13T19:02:50.741Z,50.75
2019-03-13T19:05:19.603Z,50.77
2019-03-13T19:07:47.574Z,50.55
2019-03-13T19:10:21.273Z,51.06
2019-03-13T19:12:48.833Z,50.46
2019-03-13T19:15:21.226Z,49.84
2019-03-13T19:17:48.873Z,50.52
2019-03-13T19:20:21.564Z,51.01
2019-03-13T19:22:49.712Z,51.78
2019-03-13T19:25:17.784Z,51.11
2019-03-13T19:27:45.661Z,51.03
2019-03-13T19:30:16.902Z,51.18
2019-03-13T19:32:44.865Z,51.85
2019-03-13T19:35:13.251Z,51.81
2019-03-13T19:37:41.521Z,51.49
2019-03-13T19:40:18.067Z,51.41
2019-03-13T19:42:45.545Z,51.04
2019-03-13T19:45:29.794Z,50.50
2019-03-13T19:48:01.302Z,51.12
2019-03-13T19:50:28.815Z,49.70
2019-03-13T19:52:57.609Z,49.42
2019-03-13T19:55:26.283Z,49.78
2019-03-13T19:57:54.675Z,50.52
2019-03-13T20:00:25.087Z,51.43
2019-03-13T20:03:00.435Z,51.95
2019-03-13T20:05:26.854Z,52.44
2019-03-13T20:07:55.338Z,53.03
2019-03-13T20:10:25.148Z,52.98
2019-03-13T20:12:53.226Z,53.00
2019-03-13T20:15:24.814Z,53.96
2019-03-13T20:17:54.687Z,54.18
2019-03-13T20:20:23.374Z,54.94
2019-03-13T20:23:09.565Z,55.10
2019-03-13T20:25:37.842Z,56.48
2019-03-13T20:28:06.633Z,56.10
2019-03-13T20:30:34.917Z,56.51
2019-03-13T20:33:03.620Z,57.32
2019-03-13T20:35:31.869Z,56.94
2019-03-13T20:38:00.346Z,56.62
2019-03-13T20:40:28.962Z,56.42
2019-03-13T20:42:57.413Z,57.44
2019-03-13T20:45:29.515Z,57.07
2019-03-13T20:47:57.137Z,57.67
2019-03-13T20:50:36.039Z,57.71
2019-03-13T20:52:55.432Z,58.62
2019-03-13T20:55:23.440Z,59.02
2019-03-13T20:57:51.774Z,58.79
2019-03-13T21:00:26.410Z,58.81
2019-03-13T21:02:55.090Z,59.08
2019-03-13T21:05:22.652Z,59.06
2019-03-13T21:07:51.021Z,59.93
2019-03-13T21:10:18.791Z,59.27
2019-03-13T21:12:46.857Z,59.99
2019-03-13T21:15:20.353Z,59.60
2019-03-13T21:17:48.432Z,59.52
2019-03-13T21:20:16.910Z,60.66
2019-03-13T21:22:44.850Z,60.28
2019-03-13T21:25:21.546Z,60.14
2019-03-13T21:27:49.309Z,60.48
2019-03-13T21:30:27.741Z,60.81
2019-03-13T21:32:56.408Z,60.83
2019-03-13T21:35:24.069Z,61.88
2019-03-13T21:37:52.154Z,61.29
2019-03-13T21:40:21.745Z,62.28
2019-03-13T21:42:49.512Z,62.02
2019-03-13T21:45:22.700Z,61.95
2019-03-13T21:47:47.207Z,61.74
2019-03-13T21:50:17.517Z,61.75
2019-03-13T21:52:45.582Z,60.93
2019-03-13T21:55:17.552Z,61.49
2019-03-13T21:57:45.410Z,62.82
2019-03-13T22:00:24.084Z,62.63
2019-03-13T22:02:52.223Z,62.11
2019-03-13T22:05:26.318Z,62.14
2019-03-13T22:07:50.298Z,62.87
2019-03-13T22:10:18.463Z,61.80
2019-03-13T22:12:46.434Z,61.00
2019-03-13T22:15:19.218Z,60.82
2019-03-13T22:17:47.283Z,60.58
2019-03-13T22:20:15.870Z,61.88
2019-03-13T22:22:43.834Z,61.95
2019-03-13T22:25:15.708Z,62.27
2019-03-13T22:27:43.670Z,62.41
2019-03-13T22:30:20.751Z,62.00
2019-03-13T22:32:48.720Z,63.19
2019-03-13T22:35:16.581Z,62.95
2019-03-13T22:37:45.683Z,62.51
2019-03-13T22:40:14.772Z,63.08
2019-03-13T22:42:42.581Z,63.07
2019-03-13T22:45:17.456Z,64.09
2019-03-13T22:47:45.438Z,63.98
2019-03-13T22:50:18.116Z,63.51
2019-03-13T22:52:45.776Z,63.57
2019-03-13T22:55:14.360Z,64.29
2019-03-13T22:57:42.329Z,63.83
2019-03-13T23:00:22.278Z,64.41
2019-03-13T23:02:52.091Z,64.40
2019-03-13T23:05:20.463Z,64.71
2019-03-13T23:07:48.332Z,65.32
2019-03-13T23:10:28.997Z,65.57
2019-03-13T23:12:57.067Z,64.88
2019-03-13T23:15:25.757Z,65.40
2019-03-13T23:17:53.730Z,65.87
2019-03-13T23:20:21.689Z,66.31
2019-03-13T23:22:49.657Z,66.00
2019-03-13T23:25:17.624Z,66.62
2019-03-13T23:27:45.699Z,67.03
2019-03-13T23:30:16.431Z,67.12
2019-03-13T23:32:44.300Z,67.13
2019-03-13T23:35:12.268Z,68.27
2019-03-13T23:37:40.338Z,68.16
2019-03-13T23:40:08.776Z,67.57
2019-03-13T23:42:36.891Z,67.35
2019-03-13T23:45:06.628Z,68.07
2019-03-13T23:47:34.160Z,68.15
2019-03-13T23:50:02.230Z,68.29
2019-03-13T23:52:30.095Z,68.12
2019-03-13T23:54:58.371Z,68.70
2019-03-13T23:57:26.241Z,68.21
2019-03-13T23:59:54.208Z,65.96
